createdAt,value
2023-03-14T00:02:28.672Z,100427.94
2023-03-14T00:05:16.330Z,100443.22
2023-03-14T00:08:03.946Z,100445.41
2023-03-14T00:10:51.610Z,100438.97
2023-03-14T00:13:39.567Z,100437.31
2023-03-14T00:16:28.990Z,100431.25
2023-03-14T00:19:17.075Z,100419.88
2023-03-14T00:22:04.801Z,100395.47
2023-03-14T00:24:52.435Z,100424.56
2023-03-14T00:27:40.438Z,100397.94
2023-03-14T00:30:28.108Z,100408.91
2023-03-14T00:33:15.800Z,100402.00
2023-03-14T00:36:06.787Z,100393.84
2023-03-14T00:38:54.618Z,100399.41
2023-03-14T00:41:42.146Z,100375.84
2023-03-14T00:44:29.897Z,100391.44
2023-03-14T00:47:18.337Z,100385.28
2023-03-14T00:50:06.632Z,100377.47
2023-03-14T00:52:54.271Z,100401.06
2023-03-14T00:55:46.164Z,100399.19
2023-03-14T00:58:33.866Z,100393.16
2023-03-14T01:01:24.318Z,100383.78
2023-03-14T01:04:12.346Z,100375.72
2023-03-14T01:06:59.993Z,100351.09
2023-03-14T01:09:47.632Z,100381.47
2023-03-14T01:12:36.179Z,100371.72
2023-03-14T01:15:23.850Z,100378.75
2023-03-14T01:18:11.643Z,100366.41
2023-03-14T01:20:59.770Z,100316.28
2023-03-14T01:23:48.451Z,100362.34
2023-03-14T01:26:36.744Z,100356.34
2023-03-14T01:29:26.774Z,100261.78
2023-03-14T01:32:14.901Z,100338.22
2023-03-14T01:35:02.643Z,100333.41
2023-03-14T01:37:51.272Z,100332.34
2023-03-14T01:40:46.126Z,100324.25
2023-03-14T01:43:34.892Z,100321.88
2023-03-14T01:46:45.469Z,100328.47
2023-03-14T01:49:37.600Z,100327.63
2023-03-14T01:52:36.398Z,100329.66
2023-03-14T01:55:26.946Z,100332.41
2023-03-14T01:58:16.097Z,100335.47
2023-03-14T02:01:05.577Z,100338.81
2023-03-14T02:03:57.569Z,100328.78
2023-03-14T02:06:52.747Z,100299.56
2023-03-14T02:09:45.335Z,100236.28
2023-03-14T02:12:40.448Z,100301.44
2023-03-14T02:15:34.404Z,100335.28
2023-03-14T02:18:27.644Z,100307.41
2023-03-14T02:22:13.904Z,100334.75
2023-03-14T02:25:17.142Z,100343.44
2023-03-14T02:28:05.837Z,100329.38
2023-03-14T02:30:54.693Z,100329.34
2023-03-14T02:33:42.572Z,100334.75
2023-03-14T02:36:31.420Z,100351.84
2023-03-14T02:39:29.257Z,100305.50
2023-03-14T02:42:17.988Z,100332.28
2023-03-14T02:45:08.904Z,100303.59
2023-03-14T02:48:07.652Z,100272.72
2023-03-14T02:51:00.172Z,100326.56
2023-03-14T02:53:48.866Z,100332.56
2023-03-14T02:56:39.655Z,100338.53
2023-03-14T02:59:28.653Z,100339.66
2023-03-14T03:02:19.918Z,100340.50
2023-03-14T03:05:07.813Z,100350.75
2023-03-14T03:07:55.628Z,100347.81
2023-03-14T03:10:43.228Z,100358.94
2023-03-14T03:13:30.981Z,100355.38
2023-03-14T03:16:20.112Z,100349.16
2023-03-14T03:19:07.953Z,100345.09
2023-03-14T03:21:55.559Z,100342.19
2023-03-14T03:24:50.416Z,100330.78
2023-03-14T03:27:39.400Z,100340.81
2023-03-14T03:30:27.137Z,100341.34
2023-03-14T03:33:15.065Z,100351.63
2023-03-14T03:36:06.002Z,100336.97
2023-03-14T03:38:57.112Z,100344.25
2023-03-14T03:41:45.560Z,100294.19
2023-03-14T03:44:33.610Z,100297.41
2023-03-14T03:47:22.454Z,100317.16
2023-03-14T03:50:11.055Z,100292.81
2023-03-14T03:52:58.892Z,100308.78
2023-03-14T03:55:47.082Z,100325.34
2023-03-14T03:58:35.232Z,100329.72
2023-03-14T04:01:23.827Z,100326.47
2023-03-14T04:04:15.231Z,100289.66
2023-03-14T04:07:06.223Z,100327.84
2023-03-14T04:09:53.974Z,100326.78
2023-03-14T04:13:04.318Z,100331.66
2023-03-14T04:15:55.534Z,100316.25
2023-03-14T04:18:46.297Z,100329.81
2023-03-14T04:21:34.252Z,100317.34
2023-03-14T04:24:22.368Z,100316.53
2023-03-14T04:27:11.282Z,100279.63
2023-03-14T04:29:58.995Z,100312.97
2023-03-14T04:33:05.616Z,100301.06
2023-03-14T04:35:56.734Z,100299.72
2023-03-14T04:38:45.674Z,100282.59
2023-03-14T04:49:56.875Z,100211.50
2023-03-14T04:52:46.049Z,100297.69
2023-03-14T04:55:34.339Z,100303.41
2023-03-14T04:58:24.082Z,100306.66
2023-03-14T05:01:13.855Z,100300.38
2023-03-14T05:04:09.541Z,100306.06
2023-03-14T05:07:13.838Z,100299.44
2023-03-14T05:10:16.315Z,100301.63
2023-03-14T05:13:29.319Z,100301.63
2023-03-14T05:16:39.999Z,100271.00
2023-03-14T05:19:38.484Z,100310.44
2023-03-14T05:22:46.567Z,100294.44
2023-03-14T05:25:54.403Z,100298.69
2023-03-14T05:29:02.347Z,100279.63
2023-03-14T05:32:00.045Z,100282.97
2023-03-14T05:35:06.771Z,100288.75
2023-03-14T05:38:16.861Z,100279.72
2023-03-14T05:41:27.550Z,100273.31
2023-03-14T05:44:41.295Z,100269.56
2023-03-14T05:47:35.204Z,100255.72
2023-03-14T05:50:58.607Z,100278.75
2023-03-14T05:53:58.984Z,100285.31
2023-03-14T05:57:19.157Z,100284.44
2023-03-14T06:00:26.197Z,100281.03
2023-03-14T06:03:34.671Z,100269.81
2023-03-14T06:06:22.524Z,100296.09
2023-03-14T06:09:12.671Z,100264.97
2023-03-14T06:12:03.667Z,100286.88
2023-03-14T06:14:57.029Z,100289.66
2023-03-14T06:17:44.882Z,100288.63
2023-03-14T06:20:36.392Z,100290.94
2023-03-14T06:23:24.896Z,100290.50
2023-03-14T06:26:12.999Z,100280.00
2023-03-14T06:29:04.566Z,100283.84
2023-03-14T06:31:53.924Z,100289.41
2023-03-14T06:34:42.034Z,100281.34
2023-03-14T06:37:30.600Z,100273.88
2023-03-14T06:40:19.610Z,100285.88
2023-03-14T06:43:27.429Z,100277.91
2023-03-14T06:46:17.031Z,100291.28
2023-03-14T06:49:07.226Z,100271.34
2023-03-14T06:51:55.047Z,100284.69
2023-03-14T06:54:42.975Z,100289.25
2023-03-14T06:57:30.916Z,100275.69
2023-03-14T07:00:19.201Z,100280.75
2023-03-14T07:03:07.360Z,100274.38
2023-03-14T07:05:59.216Z,100273.75
2023-03-14T07:08:49.753Z,100266.97
2023-03-14T07:11:38.733Z,100259.28
2023-03-14T07:14:26.636Z,100256.38
2023-03-14T07:17:15.101Z,100246.84
2023-03-14T07:20:07.384Z,100247.56
2023-03-14T07:22:56.138Z,100231.00
2023-03-14T07:25:56.234Z,100254.41
2023-03-14T07:28:46.724Z,100216.28
2023-03-14T07:31:38.233Z,100242.91
2023-03-14T07:34:28.480Z,100247.75
2023-03-14T07:37:18.042Z,100235.00
2023-03-14T07:40:08.438Z,100231.75
2023-03-14T07:42:58.724Z,100225.69
2023-03-14T07:46:02.209Z,100228.38
2023-03-14T07:48:50.084Z,100223.94
2023-03-14T07:51:37.832Z,100208.94
2023-03-14T07:54:28.360Z,100216.63
2023-03-14T07:57:18.686Z,100205.81
2023-03-14T08:00:07.193Z,100208.25
2023-03-14T08:03:00.735Z,100195.09
2023-03-14T08:05:49.459Z,100205.16
2023-03-14T08:08:37.016Z,100211.56
2023-03-14T08:11:24.794Z,100184.34
2023-03-14T08:14:12.577Z,100200.66
2023-03-14T08:17:00.343Z,100164.91
2023-03-14T08:19:48.429Z,100203.38
2023-03-14T08:22:36.145Z,100200.78
2023-03-14T08:25:23.905Z,100173.38
2023-03-14T08:28:11.692Z,100201.88
2023-03-14T08:30:59.441Z,100197.09
2023-03-14T08:33:47.118Z,100188.81
2023-03-14T08:36:35.276Z,100184.75
2023-03-14T08:39:23.084Z,100177.69
2023-03-14T08:42:10.800Z,100153.03
2023-03-14T08:44:58.509Z,100149.75
2023-03-14T08:47:46.488Z,100172.34
2023-03-14T08:50:35.203Z,100155.44
2023-03-14T08:53:23.830Z,100159.50
2023-03-14T08:56:11.651Z,100151.00
2023-03-14T08:58:59.350Z,100152.19
2023-03-14T09:01:46.996Z,100142.56
2023-03-14T09:04:34.780Z,100137.50
2023-03-14T09:07:22.550Z,100133.59
2023-03-14T09:10:11.102Z,100144.00
2023-03-14T09:12:59.547Z,100107.19
2023-03-14T09:15:52.324Z,100125.59
2023-03-14T09:18:40.041Z,100104.50
2023-03-14T09:21:28.790Z,100092.94
2023-03-14T09:24:17.613Z,100098.41
2023-03-14T09:27:09.663Z,100086.63
2023-03-14T09:29:57.217Z,100081.03
2023-03-14T09:32:45.238Z,100076.53
2023-03-14T09:35:35.853Z,100042.81
2023-03-14T09:38:24.423Z,100060.34
2023-03-14T09:41:43.195Z,100058.75
2023-03-14T09:44:33.976Z,100051.97
2023-03-14T09:47:22.786Z,100039.22
2023-03-14T09:50:19.052Z,100031.22
2023-03-14T09:53:13.437Z,100025.56
2023-03-14T09:56:01.055Z,100012.84
2023-03-14T09:59:01.381Z,100014.78
2023-03-14T10:01:49.119Z,99987.38
2023-03-14T10:04:37.443Z,99998.56
2023-03-14T10:07:34.626Z,99991.47
2023-03-14T10:10:26.157Z,99982.16
2023-03-14T10:13:27.235Z,99980.44
2023-03-14T10:16:20.068Z,99973.56
2023-03-14T10:19:21.259Z,99962.88
2023-03-14T10:22:34.941Z,99973.13
2023-03-14T10:25:30.054Z,99966.81
2023-03-14T10:28:32.264Z,99957.81
2023-03-14T10:31:22.868Z,99954.84
2023-03-14T10:34:18.148Z,99944.50
2023-03-14T10:37:28.814Z,99931.09
2023-03-14T10:40:18.782Z,99908.13
2023-03-14T10:43:16.753Z,99921.03
2023-03-14T10:46:15.770Z,99910.22
2023-03-14T10:53:05.048Z,99886.56
2023-03-14T10:55:57.897Z,99870.25
2023-03-14T10:58:48.292Z,99882.78
2023-03-14T11:01:42.083Z,99865.66
2023-03-14T11:04:37.219Z,99870.75
2023-03-14T11:07:45.929Z,99859.47
2023-03-14T11:10:44.280Z,99846.00
2023-03-14T11:13:38.442Z,99839.06
2023-03-14T11:16:56.584Z,99837.66
2023-03-14T11:19:53.297Z,99820.31
2023-03-14T11:23:02.469Z,99806.91
2023-03-14T11:26:01.011Z,99785.59
2023-03-14T11:28:58.558Z,99787.31
2023-03-14T11:31:47.690Z,99774.53
2023-03-14T11:34:49.362Z,99750.41
2023-03-14T11:37:49.275Z,99756.34
2023-03-14T11:40:40.591Z,99751.41
2023-03-14T11:43:38.338Z,99752.28
2023-03-14T11:47:00.636Z,99745.94
2023-03-14T11:50:09.112Z,99749.47
2023-03-14T11:53:05.882Z,99735.59
2023-03-14T11:55:55.003Z,99728.56
2023-03-14T11:58:56.175Z,99709.69
2023-03-14T12:01:55.076Z,99724.84
2023-03-14T12:04:51.605Z,99714.59
2023-03-14T12:08:12.469Z,99701.59
2023-03-14T12:11:05.945Z,99706.91
2023-03-14T12:13:54.807Z,99686.03
2023-03-14T12:16:47.058Z,99689.78
2023-03-14T12:19:37.782Z,99685.06
2023-03-14T12:22:43.093Z,99638.66
2023-03-14T12:25:34.722Z,99674.47
2023-03-14T12:28:32.632Z,99675.31
2023-03-14T12:31:32.695Z,99670.81
2023-03-14T12:34:20.764Z,99637.06
2023-03-14T12:37:34.439Z,99658.56
2023-03-14T12:40:32.874Z,99643.38
2023-03-14T12:43:30.119Z,99649.84
2023-03-14T12:46:29.095Z,99633.81
2023-03-14T12:49:16.976Z,99634.16
2023-03-14T12:52:20.451Z,99607.09
2023-03-14T12:55:42.093Z,99620.78
2023-03-14T12:58:36.496Z,99620.63
2023-03-14T13:01:24.181Z,99614.00
2023-03-14T13:04:13.411Z,99582.91
2023-03-14T13:07:03.785Z,99600.78
2023-03-14T13:09:55.950Z,99572.13
2023-03-14T13:12:56.790Z,99586.22
2023-03-14T13:15:47.419Z,99574.63
2023-03-14T13:18:43.532Z,99576.97
2023-03-14T13:21:36.627Z,99558.03
2023-03-14T13:24:27.386Z,99556.06
2023-03-14T13:27:22.901Z,99545.88
2023-03-14T13:30:21.916Z,99538.41
2023-03-14T13:33:18.427Z,99542.03
2023-03-14T13:36:07.298Z,99512.03
2023-03-14T13:39:00.575Z,99489.81
2023-03-14T13:41:49.613Z,99525.44
2023-03-14T13:44:42.410Z,99526.44
2023-03-14T13:47:30.949Z,99521.41
2023-03-14T13:50:19.912Z,99504.28
2023-03-14T13:53:12.769Z,99510.19
2023-03-14T13:56:04.938Z,99498.44
2023-03-14T13:58:53.666Z,99472.31
2023-03-14T14:01:49.623Z,99483.28
2023-03-14T14:04:38.696Z,99456.81
2023-03-14T14:07:26.489Z,99474.28
2023-03-14T14:10:15.158Z,99464.25
2023-03-14T14:13:05.216Z,99472.88
2023-03-14T14:15:55.834Z,99458.13
2023-03-14T14:18:43.706Z,99449.56
2023-03-14T14:21:32.941Z,99427.81
2023-03-14T14:24:24.900Z,99409.09
2023-03-14T14:27:17.985Z,99436.50
2023-03-14T14:30:25.801Z,99417.22
2023-03-14T14:33:23.596Z,99423.88
2023-03-14T14:36:22.062Z,99416.34
2023-03-14T14:39:22.831Z,99414.00
2023-03-14T14:42:19.885Z,99403.78
2023-03-14T14:45:16.548Z,99394.00
2023-03-14T14:48:11.717Z,99394.47
2023-03-14T14:51:05.143Z,99396.09
2023-03-14T14:54:20.696Z,99395.91
2023-03-14T14:57:19.752Z,99391.22
2023-03-14T15:00:13.717Z,99350.44
2023-03-14T15:03:01.810Z,99381.78
2023-03-14T15:05:49.690Z,99374.28
2023-03-14T15:08:39.225Z,99297.91
2023-03-14T15:11:28.058Z,99349.34
2023-03-14T15:14:15.828Z,99373.97
2023-03-14T15:17:04.169Z,99354.94
2023-03-14T15:19:51.810Z,99305.53
2023-03-14T15:22:39.433Z,99341.56
2023-03-14T15:25:51.532Z,99343.09
2023-03-14T15:28:35.908Z,99306.88
2023-03-14T15:31:24.015Z,99326.69
2023-03-14T15:34:11.756Z,99324.81
2023-03-14T15:36:59.426Z,99307.13
2023-03-14T15:39:47.184Z,99328.94
2023-03-14T15:42:34.943Z,99332.56
2023-03-14T15:45:22.637Z,99336.97
2023-03-14T15:48:22.430Z,99334.25
2023-03-14T15:51:10.079Z,99336.69
2023-03-14T15:53:57.990Z,99318.91
2023-03-14T15:56:45.845Z,99320.53
2023-03-14T15:59:33.707Z,99314.22
2023-03-14T16:02:21.350Z,99319.75
2023-03-14T16:05:13.480Z,99303.16
2023-03-14T16:08:02.543Z,99313.47
2023-03-14T16:10:50.363Z,99306.34
2023-03-14T16:13:39.069Z,99305.56
2023-03-14T16:16:26.760Z,99291.28
2023-03-14T16:19:14.601Z,99300.03
2023-03-14T16:22:02.377Z,99303.59
2023-03-14T16:24:52.331Z,99303.19
2023-03-14T16:27:40.211Z,99292.88
2023-03-14T16:30:27.997Z,99293.25
2023-03-14T16:33:17.086Z,99271.41
2023-03-14T16:36:08.800Z,99270.16
2023-03-14T16:38:56.611Z,99295.91
2023-03-14T16:41:50.492Z,99302.56
2023-03-14T16:44:38.162Z,99274.06
2023-03-14T16:47:25.997Z,99276.34
2023-03-14T16:50:16.307Z,99291.72
2023-03-14T16:53:03.957Z,99289.75
2023-03-14T16:55:52.001Z,99289.41
2023-03-14T16:58:40.243Z,99276.59
2023-03-14T17:01:27.983Z,99295.97
2023-03-14T17:04:15.947Z,99272.53
2023-03-14T17:07:03.851Z,99281.91
2023-03-14T17:09:52.087Z,99283.88
2023-03-14T17:12:39.801Z,99252.84
2023-03-14T17:15:27.444Z,99283.97
2023-03-14T17:18:15.168Z,99280.03
2023-03-14T17:21:03.887Z,99289.34
2023-03-14T17:23:51.751Z,99282.94
2023-03-14T17:26:39.409Z,99258.19
2023-03-14T17:29:27.051Z,99263.81
2023-03-14T17:32:16.130Z,99276.91
2023-03-14T17:35:04.097Z,99274.34
2023-03-14T17:37:51.961Z,99278.91
2023-03-14T17:40:39.806Z,99277.13
2023-03-14T17:43:27.649Z,99285.41
2023-03-14T17:46:17.188Z,99287.38
2023-03-14T17:49:04.965Z,99277.25
2023-03-14T17:51:52.873Z,99284.84
2023-03-14T17:54:40.898Z,99288.75
2023-03-14T17:57:29.434Z,99300.97
2023-03-14T18:00:17.985Z,99296.63
2023-03-14T18:03:06.329Z,99279.09
2023-03-14T18:05:57.077Z,99286.06
2023-03-14T18:08:46.771Z,99287.22
2023-03-14T18:11:34.548Z,99277.44
2023-03-14T18:14:22.213Z,99276.91
2023-03-14T18:17:12.987Z,99272.75
2023-03-14T18:20:00.780Z,99274.09
2023-03-14T18:22:48.528Z,99272.00
2023-03-14T18:25:36.243Z,99277.50
2023-03-14T18:28:23.944Z,99270.66
2023-03-14T18:31:13.575Z,99267.84
2023-03-14T18:34:01.884Z,99239.53
2023-03-14T18:36:50.022Z,99264.47
2023-03-14T18:39:37.746Z,99264.66
2023-03-14T18:42:25.597Z,99265.00
2023-03-14T18:45:13.735Z,99261.75
2023-03-14T18:48:02.332Z,99255.19
2023-03-14T18:51:15.415Z,99195.41
2023-03-14T18:54:09.572Z,99240.75
2023-03-14T18:57:00.532Z,99249.41
2023-03-14T18:59:48.420Z,99229.53
2023-03-14T19:02:39.063Z,99256.81
2023-03-14T19:05:37.418Z,99247.16
2023-03-14T19:08:42.398Z,99260.22
2023-03-14T19:11:30.083Z,99257.63
2023-03-14T19:14:20.434Z,99245.72
2023-03-14T19:17:08.133Z,99266.63
2023-03-14T19:19:57.093Z,99264.19
2023-03-14T19:22:47.810Z,99235.38
2023-03-14T19:25:35.821Z,99247.97
2023-03-14T19:28:24.544Z,99248.72
2023-03-14T19:31:12.254Z,99247.13
2023-03-14T19:34:00.114Z,99253.25
2023-03-14T19:36:47.825Z,99228.78
2023-03-14T19:39:35.579Z,99253.25
2023-03-14T19:42:23.261Z,99243.81
2023-03-14T19:45:11.967Z,99233.31
2023-03-14T19:48:04.322Z,99247.63
2023-03-14T19:50:52.046Z,99238.66
2023-03-14T19:53:39.965Z,99207.44
2023-03-14T19:56:27.690Z,99218.19
2023-03-14T19:59:15.480Z,99209.94
2023-03-14T20:02:03.312Z,99227.81
2023-03-14T20:04:54.700Z,99224.13
2023-03-14T20:07:42.984Z,99219.13
2023-03-14T20:10:31.148Z,99186.50
2023-03-14T20:13:22.275Z,99195.97
2023-03-14T20:16:10.939Z,99187.50
2023-03-14T20:18:58.680Z,99209.66
2023-03-14T20:21:46.413Z,99209.41
2023-03-14T20:24:34.383Z,99187.72
2023-03-14T20:27:22.122Z,99199.91
2023-03-14T20:30:13.111Z,99201.41
2023-03-14T20:33:04.849Z,99203.63
2023-03-14T20:35:57.747Z,99197.63
2023-03-14T20:38:45.432Z,99204.72
2023-03-14T20:41:33.218Z,99153.81
2023-03-14T20:44:20.953Z,99202.25
2023-03-14T20:47:08.683Z,99200.59
2023-03-14T20:49:56.621Z,99172.22
2023-03-14T20:52:45.513Z,99201.38
2023-03-14T20:55:33.216Z,99199.94
2023-03-14T20:58:20.826Z,99206.38
2023-03-14T21:01:09.278Z,99166.56
2023-03-14T21:03:57.023Z,99175.22
2023-03-14T21:06:46.245Z,99195.59
2023-03-14T21:09:34.067Z,99171.97
2023-03-14T21:12:24.866Z,99165.78
2023-03-14T21:15:15.495Z,99173.47
2023-03-14T21:18:05.890Z,99155.25
2023-03-14T21:20:55.209Z,99150.53
2023-03-14T21:23:45.098Z,99161.94
2023-03-14T21:26:33.064Z,99157.47
2023-03-14T21:29:21.861Z,99126.34
2023-03-14T21:32:10.961Z,99136.78
2023-03-14T21:34:58.793Z,99146.78
2023-03-14T21:37:46.682Z,99139.72
2023-03-14T21:40:34.628Z,99141.47
2023-03-14T21:43:27.134Z,99131.28
2023-03-14T21:46:20.579Z,99128.19
2023-03-14T21:49:11.480Z,99122.19
2023-03-14T21:51:59.079Z,99144.53
2023-03-14T21:54:51.958Z,99149.50
2023-03-14T21:57:42.022Z,99143.13
2023-03-14T22:00:29.802Z,99146.66
2023-03-14T22:03:19.153Z,99149.22
2023-03-14T22:06:08.422Z,99122.88
2023-03-14T22:08:56.163Z,99114.72
2023-03-14T22:11:43.973Z,99125.28
2023-03-14T22:14:31.787Z,99122.66
2023-03-14T22:17:20.653Z,99136.34
2023-03-14T22:20:10.830Z,99129.59
2023-03-14T22:22:58.568Z,99117.75
2023-03-14T22:25:49.880Z,99133.41
2023-03-14T22:28:37.650Z,99094.59
2023-03-14T22:31:25.274Z,99122.72
2023-03-14T22:34:13.023Z,99118.69
2023-03-14T22:37:02.482Z,99119.09
2023-03-14T22:39:50.149Z,99117.03
2023-03-14T22:42:40.079Z,99114.19
2023-03-14T22:45:28.242Z,99119.59
2023-03-14T22:48:16.010Z,99108.88
2023-03-14T22:51:11.736Z,99102.63
2023-03-14T22:53:59.520Z,99117.31
2023-03-14T22:56:47.209Z,99122.66
2023-03-14T22:59:35.128Z,99111.16
2023-03-14T23:02:22.873Z,99107.41
2023-03-14T23:05:10.844Z,99106.03
2023-03-14T23:07:58.539Z,99101.00
2023-03-14T23:10:46.811Z,99111.94
2023-03-14T23:13:35.409Z,99114.81
2023-03-14T23:16:34.165Z,99113.22
2023-03-14T23:19:29.283Z,99110.91
2023-03-14T23:22:16.983Z,99102.03
2023-03-14T23:25:05.103Z,99114.69
2023-03-14T23:27:54.390Z,99096.78
2023-03-14T23:30:42.149Z,99086.53
2023-03-14T23:33:29.865Z,99094.16
2023-03-14T23:36:22.481Z,99084.16
2023-03-14T23:39:11.390Z,99087.91
2023-03-14T23:41:59.083Z,99089.94
2023-03-14T23:44:46.903Z,99062.59
2023-03-14T23:47:34.874Z,99074.44
2023-03-14T23:50:25.698Z,99088.00
2023-03-14T23:53:13.781Z,99056.19
2023-03-14T23:56:01.662Z,99077.44
2023-03-14T23:58:51.619Z,99064.56
